sensor_id;sensor_type;location;lat;lon;timestamp;P1;durP1;ratioP1;P2;durP2;ratioP2
72674;SDS011;60752;53.962;9.614;2022-08-07T00:03:16;6.27;;;2.80;;
72674;SDS011;60752;53.962;9.614;2022-08-07T00:08:16;8.85;;;3.33;;
72674;SDS011;60752;53.962;9.614;2022-08-07T00:13:17;9.00;;;3.00;;
72674;SDS011;60752;53.962;9.614;2022-08-07T00:18:22;7.33;;;2.50;;
72674;SDS011;60752;53.962;9.614;2022-08-07T00:23:24;5.32;;;2.78;;
72674;SDS011;60752;53.962;9.614;2022-08-07T00:28:24;7.03;;;2.75;;
72674;SDS011;60752;53.962;9.614;2022-08-07T00:33:26;6.33;;;2.37;;
72674;SDS011;60752;53.962;9.614;2022-08-07T00:38:27;14.87;;;3.70;;
72674;SDS011;60752;53.962;9.614;2022-08-07T00:43:27;10.50;;;4.23;;
72674;SDS011;60752;53.962;9.614;2022-08-07T00:48:29;12.33;;;3.63;;
72674;SDS011;60752;53.962;9.614;2022-08-07T00:53:29;13.60;;;3.90;;
72674;SDS011;60752;53.962;9.614;2022-08-07T00:58:30;9.20;;;3.73;;
72674;SDS011;60752;53.962;9.614;2022-08-07T01:03:32;7.97;;;3.53;;
72674;SDS011;60752;53.962;9.614;2022-08-07T01:08:33;7.80;;;3.03;;
72674;SDS011;60752;53.962;9.614;2022-08-07T01:13:33;7.17;;;3.10;;
72674;SDS011;60752;53.962;9.614;2022-08-07T01:18:36;7.60;;;3.25;;
72674;SDS011;60752;53.962;9.614;2022-08-07T01:23:38;7.78;;;3.35;;
72674;SDS011;60752;53.962;9.614;2022-08-07T01:28:40;6.87;;;3.03;;
72674;SDS011;60752;53.962;9.614;2022-08-07T01:33:41;7.97;;;3.50;;
72674;SDS011;60752;53.962;9.614;2022-08-07T01:38:43;7.50;;;3.43;;
72674;SDS011;60752;53.962;9.614;2022-08-07T01:43:44;8.82;;;3.63;;
72674;SDS011;60752;53.962;9.614;2022-08-07T01:48:46;6.72;;;2.70;;
72674;SDS011;60752;53.962;9.614;2022-08-07T01:53:50;6.50;;;2.70;;
72674;SDS011;60752;53.962;9.614;2022-08-07T01:58:53;6.97;;;2.97;;
72674;SDS011;60752;53.962;9.614;2022-08-07T02:04:00;6.90;;;3.10;;
72674;SDS011;60752;53.962;9.614;2022-08-07T02:09:08;8.18;;;3.83;;
72674;SDS011;60752;53.962;9.614;2022-08-07T02:14:10;10.07;;;4.30;;
72674;SDS011;60752;53.962;9.614;2022-08-07T02:19:13;11.40;;;4.18;;
72674;SDS011;60752;53.962;9.614;2022-08-07T02:24:16;8.10;;;3.72;;
72674;SDS011;60752;53.962;9.614;2022-08-07T02:29:18;9.60;;;4.60;;
72674;SDS011;60752;53.962;9.614;2022-08-07T02:34:19;7.57;;;2.72;;
72674;SDS011;60752;53.962;9.614;2022-08-07T02:39:21;5.93;;;2.50;;
72674;SDS011;60752;53.962;9.614;2022-08-07T02:44:23;6.80;;;3.38;;
72674;SDS011;60752;53.962;9.614;2022-08-07T02:49:26;5.90;;;3.10;;
72674;SDS011;60752;53.962;9.614;2022-08-07T02:54:29;5.90;;;2.77;;
72674;SDS011;60752;53.962;9.614;2022-08-07T02:59:31;6.32;;;2.90;;
72674;SDS011;60752;53.962;9.614;2022-08-07T03:04:33;5.90;;;2.65;;
72674;SDS011;60752;53.962;9.614;2022-08-07T03:09:35;5.73;;;2.67;;
72674;SDS011;60752;53.962;9.614;2022-08-07T03:14:36;6.55;;;2.83;;
72674;SDS011;60752;53.962;9.614;2022-08-07T03:19:38;6.07;;;2.58;;
72674;SDS011;60752;53.962;9.614;2022-08-07T03:24:40;6.70;;;2.60;;
72674;SDS011;60752;53.962;9.614;2022-08-07T03:29:41;5.28;;;2.67;;
72674;SDS011;60752;53.962;9.614;2022-08-07T03:34:45;5.50;;;2.80;;
72674;SDS011;60752;53.962;9.614;2022-08-07T03:39:50;7.20;;;2.87;;
72674;SDS011;60752;53.962;9.614;2022-08-07T03:44:52;8.20;;;3.30;;
72674;SDS011;60752;53.962;9.614;2022-08-07T03:49:53;6.60;;;3.25;;
72674;SDS011;60752;53.962;9.614;2022-08-07T03:54:57;6.60;;;3.53;;
72674;SDS011;60752;53.962;9.614;2022-08-07T03:59:58;8.93;;;3.60;;
72674;SDS011;60752;53.962;9.614;2022-08-07T04:04:58;7.30;;;3.35;;
72674;SDS011;60752;53.962;9.614;2022-08-07T04:10:00;7.30;;;3.50;;
72674;SDS011;60752;53.962;9.614;2022-08-07T04:15:02;7.80;;;3.90;;
72674;SDS011;60752;53.962;9.614;2022-08-07T04:20:03;6.53;;;3.10;;
72674;SDS011;60752;53.962;9.614;2022-08-07T04:25:09;6.35;;;3.20;;
72674;SDS011;60752;53.962;9.614;2022-08-07T04:30:10;6.30;;;3.03;;
72674;SDS011;60752;53.962;9.614;2022-08-07T04:35:11;6.53;;;3.10;;
72674;SDS011;60752;53.962;9.614;2022-08-07T04:40:13;13.43;;;7.03;;
72674;SDS011;60752;53.962;9.614;2022-08-07T04:45:13;8.60;;;4.37;;
72674;SDS011;60752;53.962;9.614;2022-08-07T04:50:16;7.50;;;4.70;;
72674;SDS011;60752;53.962;9.614;2022-08-07T04:55:27;9.07;;;4.53;;
72674;SDS011;60752;53.962;9.614;2022-08-07T05:00:36;6.70;;;3.60;;
72674;SDS011;60752;53.962;9.614;2022-08-07T05:05:41;6.30;;;3.37;;
72674;SDS011;60752;53.962;9.614;2022-08-07T05:10:48;6.13;;;2.97;;
72674;SDS011;60752;53.962;9.614;2022-08-07T05:15:55;9.82;;;3.80;;
72674;SDS011;60752;53.962;9.614;2022-08-07T05:20:59;6.95;;;3.33;;
72674;SDS011;60752;53.962;9.614;2022-08-07T05:26:04;7.50;;;2.93;;
72674;SDS011;60752;53.962;9.614;2022-08-07T05:31:07;8.70;;;3.25;;
72674;SDS011;60752;53.962;9.614;2022-08-07T05:36:10;7.53;;;2.88;;
72674;SDS011;60752;53.962;9.614;2022-08-07T05:41:13;8.00;;;3.93;;
72674;SDS011;60752;53.962;9.614;2022-08-07T05:46:15;8.38;;;4.45;;
72674;SDS011;60752;53.962;9.614;2022-08-07T05:51:16;9.80;;;3.70;;
72674;SDS011;60752;53.962;9.614;2022-08-07T05:56:19;9.30;;;4.33;;
72674;SDS011;60752;53.962;9.614;2022-08-07T06:01:20;10.57;;;4.60;;
72674;SDS011;60752;53.962;9.614;2022-08-07T06:06:22;8.65;;;4.38;;
72674;SDS011;60752;53.962;9.614;2022-08-07T06:11:24;8.32;;;4.05;;
72674;SDS011;60752;53.962;9.614;2022-08-07T06:16:26;10.60;;;4.63;;
72674;SDS011;60752;53.962;9.614;2022-08-07T06:21:30;15.32;;;4.82;;
72674;SDS011;60752;53.962;9.614;2022-08-07T06:26:33;10.30;;;4.70;;
72674;SDS011;60752;53.962;9.614;2022-08-07T06:31:34;10.03;;;4.13;;
72674;SDS011;60752;53.962;9.614;2022-08-07T06:36:34;8.98;;;4.10;;
72674;SDS011;60752;53.962;9.614;2022-08-07T06:41:37;8.63;;;3.83;;
72674;SDS011;60752;53.962;9.614;2022-08-07T06:46:40;17.13;;;4.17;;
72674;SDS011;60752;53.962;9.614;2022-08-07T06:51:41;8.80;;;4.10;;
72674;SDS011;60752;53.962;9.614;2022-08-07T06:56:46;8.80;;;4.18;;
72674;SDS011;60752;53.962;9.614;2022-08-07T07:01:47;8.50;;;4.20;;
72674;SDS011;60752;53.962;9.614;2022-08-07T07:06:49;9.68;;;4.55;;
72674;SDS011;60752;53.962;9.614;2022-08-07T07:11:56;11.70;;;4.80;;
72674;SDS011;60752;53.962;9.614;2022-08-07T07:22:19;9.63;;;3.67;;
72674;SDS011;60752;53.962;9.614;2022-08-07T07:27:22;6.90;;;3.30;;
72674;SDS011;60752;53.962;9.614;2022-08-07T07:32:26;7.55;;;3.75;;
72674;SDS011;60752;53.962;9.614;2022-08-07T07:37:30;7.30;;;3.55;;
72674;SDS011;60752;53.962;9.614;2022-08-07T07:42:33;7.37;;;3.00;;
72674;SDS011;60752;53.962;9.614;2022-08-07T07:47:36;6.72;;;3.05;;
72674;SDS011;60752;53.962;9.614;2022-08-07T07:52:40;6.60;;;3.05;;
72674;SDS011;60752;53.962;9.614;2022-08-07T07:57:44;6.77;;;2.40;;
72674;SDS011;60752;53.962;9.614;2022-08-07T08:02:48;6.93;;;2.40;;
72674;SDS011;60752;53.962;9.614;2022-08-07T08:07:52;9.02;;;2.80;;
72674;SDS011;60752;53.962;9.614;2022-08-07T08:12:54;4.90;;;2.17;;
72674;SDS011;60752;53.962;9.614;2022-08-07T08:17:55;7.70;;;3.00;;
72674;SDS011;60752;53.962;9.614;2022-08-07T08:22:57;5.70;;;2.63;;
72674;SDS011;60752;53.962;9.614;2022-08-07T08:28:00;5.35;;;2.55;;
72674;SDS011;60752;53.962;9.614;2022-08-07T08:33:03;6.68;;;2.40;;
72674;SDS011;60752;53.962;9.614;2022-08-07T08:38:06;6.33;;;2.57;;
72674;SDS011;60752;53.962;9.614;2022-08-07T08:43:12;5.10;;;2.40;;
72674;SDS011;60752;53.962;9.614;2022-08-07T08:48:18;6.57;;;2.78;;
72674;SDS011;60752;53.962;9.614;2022-08-07T08:53:26;4.38;;;2.00;;
72674;SDS011;60752;53.962;9.614;2022-08-07T08:58:35;9.57;;;2.57;;
72674;SDS011;60752;53.962;9.614;2022-08-07T09:03:48;5.72;;;2.47;;
72674;SDS011;60752;53.962;9.614;2022-08-07T09:08:54;5.55;;;2.22;;
72674;SDS011;60752;53.962;9.614;2022-08-07T09:14:00;5.70;;;2.30;;
72674;SDS011;60752;53.962;9.614;2022-08-07T09:19:09;8.63;;;1.98;;
72674;SDS011;60752;53.962;9.614;2022-08-07T09:24:20;6.32;;;2.20;;
72674;SDS011;60752;53.962;9.614;2022-08-07T09:29:32;4.80;;;2.17;;
72674;SDS011;60752;53.962;9.614;2022-08-07T09:34:45;6.33;;;2.20;;
72674;SDS011;60752;53.962;9.614;2022-08-07T09:39:54;5.25;;;2.50;;
72674;SDS011;60752;53.962;9.614;2022-08-07T09:45:05;5.20;;;2.50;;
72674;SDS011;60752;53.962;9.614;2022-08-07T09:50:13;6.43;;;2.57;;
72674;SDS011;60752;53.962;9.614;2022-08-07T09:55:20;5.30;;;2.55;;
72674;SDS011;60752;53.962;9.614;2022-08-07T10:00:28;5.00;;;2.60;;
72674;SDS011;60752;53.962;9.614;2022-08-07T10:06:04;5.40;;;2.60;;
72674;SDS011;60752;53.962;9.614;2022-08-07T10:11:19;5.00;;;2.10;;
72674;SDS011;60752;53.962;9.614;2022-08-07T10:16:41;5.30;;;2.35;;
72674;SDS011;60752;53.962;9.614;2022-08-07T10:21:59;4.60;;;2.17;;
72674;SDS011;60752;53.962;9.614;2022-08-07T10:27:23;4.80;;;2.47;;
72674;SDS011;60752;53.962;9.614;2022-08-07T10:38:06;6.45;;;2.33;;
72674;SDS011;60752;53.962;9.614;2022-08-07T10:43:16;5.53;;;2.73;;
72674;SDS011;60752;53.962;9.614;2022-08-07T10:48:25;7.57;;;2.47;;
72674;SDS011;60752;53.962;9.614;2022-08-07T10:53:35;5.40;;;2.50;;
72674;SDS011;60752;53.962;9.614;2022-08-07T10:58:50;5.47;;;2.50;;
72674;SDS011;60752;53.962;9.614;2022-08-07T11:04:01;5.30;;;2.25;;
72674;SDS011;60752;53.962;9.614;2022-08-07T11:09:08;5.55;;;2.45;;
72674;SDS011;60752;53.962;9.614;2022-08-07T11:14:14;5.90;;;2.20;;
72674;SDS011;60752;53.962;9.614;2022-08-07T11:19:23;5.97;;;2.80;;
72674;SDS011;60752;53.962;9.614;2022-08-07T11:24:29;5.25;;;2.15;;
72674;SDS011;60752;53.962;9.614;2022-08-07T11:29:37;6.95;;;2.88;;
72674;SDS011;60752;53.962;9.614;2022-08-07T11:34:45;6.40;;;2.30;;
72674;SDS011;60752;53.962;9.614;2022-08-07T11:39:53;9.10;;;2.75;;
72674;SDS011;60752;53.962;9.614;2022-08-07T11:45:09;5.72;;;2.58;;
72674;SDS011;60752;53.962;9.614;2022-08-07T11:50:19;5.10;;;2.53;;
72674;SDS011;60752;53.962;9.614;2022-08-07T11:55:29;5.75;;;2.67;;
72674;SDS011;60752;53.962;9.614;2022-08-07T12:00:47;5.70;;;2.58;;
72674;SDS011;60752;53.962;9.614;2022-08-07T12:06:01;5.83;;;2.30;;
72674;SDS011;60752;53.962;9.614;2022-08-07T12:11:15;6.77;;;2.57;;
72674;SDS011;60752;53.962;9.614;2022-08-07T12:16:26;5.22;;;2.25;;
72674;SDS011;60752;53.962;9.614;2022-08-07T12:21:34;5.03;;;2.20;;
72674;SDS011;60752;53.962;9.614;2022-08-07T12:26:42;9.37;;;2.33;;
72674;SDS011;60752;53.962;9.614;2022-08-07T12:31:48;5.00;;;2.30;;
72674;SDS011;60752;53.962;9.614;2022-08-07T12:36:57;5.25;;;2.10;;
72674;SDS011;60752;53.962;9.614;2022-08-07T12:41:59;6.20;;;2.27;;
72674;SDS011;60752;53.962;9.614;2022-08-07T12:47:02;5.97;;;2.05;;
72674;SDS011;60752;53.962;9.614;2022-08-07T12:52:13;4.25;;;1.83;;
72674;SDS011;60752;53.962;9.614;2022-08-07T12:57:14;5.50;;;2.10;;
72674;SDS011;60752;53.962;9.614;2022-08-07T13:02:28;4.78;;;1.80;;
72674;SDS011;60752;53.962;9.614;2022-08-07T13:07:48;4.25;;;2.00;;
72674;SDS011;60752;53.962;9.614;2022-08-07T13:13:09;5.87;;;1.90;;
72674;SDS011;60752;53.962;9.614;2022-08-07T13:18:23;4.70;;;2.17;;
72674;SDS011;60752;53.962;9.614;2022-08-07T13:23:31;4.38;;;1.95;;
72674;SDS011;60752;53.962;9.614;2022-08-07T13:28:38;7.13;;;2.30;;
72674;SDS011;60752;53.962;9.614;2022-08-07T13:33:46;7.47;;;2.40;;
72674;SDS011;60752;53.962;9.614;2022-08-07T13:38:54;4.88;;;2.30;;
72674;SDS011;60752;53.962;9.614;2022-08-07T13:44:00;4.70;;;2.08;;
72674;SDS011;60752;53.962;9.614;2022-08-07T13:49:02;5.20;;;1.90;;
72674;SDS011;60752;53.962;9.614;2022-08-07T13:54:08;6.85;;;2.05;;
72674;SDS011;60752;53.962;9.614;2022-08-07T13:59:12;5.28;;;2.17;;
72674;SDS011;60752;53.962;9.614;2022-08-07T14:04:17;5.53;;;2.10;;
72674;SDS011;60752;53.962;9.614;2022-08-07T14:09:20;4.20;;;2.00;;
72674;SDS011;60752;53.962;9.614;2022-08-07T14:14:25;6.00;;;1.98;;
72674;SDS011;60752;53.962;9.614;2022-08-07T14:19:29;5.70;;;2.40;;
72674;SDS011;60752;53.962;9.614;2022-08-07T14:24:38;5.30;;;2.10;;
72674;SDS011;60752;53.962;9.614;2022-08-07T14:29:41;5.07;;;2.50;;
72674;SDS011;60752;53.962;9.614;2022-08-07T14:34:47;4.47;;;1.80;;
72674;SDS011;60752;53.962;9.614;2022-08-07T14:39:49;8.53;;;2.10;;
72674;SDS011;60752;53.962;9.614;2022-08-07T14:44:52;4.78;;;2.03;;
72674;SDS011;60752;53.962;9.614;2022-08-07T14:49:56;4.80;;;1.80;;
72674;SDS011;60752;53.962;9.614;2022-08-07T14:54:59;5.50;;;1.83;;
72674;SDS011;60752;53.962;9.614;2022-08-07T15:00:01;4.78;;;1.75;;
72674;SDS011;60752;53.962;9.614;2022-08-07T15:05:03;5.88;;;2.20;;
72674;SDS011;60752;53.962;9.614;2022-08-07T15:10:07;4.63;;;2.30;;
72674;SDS011;60752;53.962;9.614;2022-08-07T15:15:08;5.70;;;2.10;;
72674;SDS011;60752;53.962;9.614;2022-08-07T15:20:13;5.75;;;2.50;;
72674;SDS011;60752;53.962;9.614;2022-08-07T15:25:17;4.28;;;1.60;;
72674;SDS011;60752;53.962;9.614;2022-08-07T15:30:22;6.17;;;2.00;;
72674;SDS011;60752;53.962;9.614;2022-08-07T15:35:25;5.13;;;2.25;;
72674;SDS011;60752;53.962;9.614;2022-08-07T15:40:27;5.22;;;2.30;;
72674;SDS011;60752;53.962;9.614;2022-08-07T15:45:34;4.43;;;2.00;;
72674;SDS011;60752;53.962;9.614;2022-08-07T15:50:37;5.80;;;1.85;;
72674;SDS011;60752;53.962;9.614;2022-08-07T15:55:42;4.43;;;2.00;;
72674;SDS011;60752;53.962;9.614;2022-08-07T16:00:43;5.20;;;1.63;;
72674;SDS011;60752;53.962;9.614;2022-08-07T16:05:45;5.87;;;2.00;;
72674;SDS011;60752;53.962;9.614;2022-08-07T16:10:51;5.13;;;1.95;;
72674;SDS011;60752;53.962;9.614;2022-08-07T16:15:58;4.80;;;2.05;;
72674;SDS011;60752;53.962;9.614;2022-08-07T16:21:05;4.97;;;2.00;;
72674;SDS011;60752;53.962;9.614;2022-08-07T16:26:11;5.32;;;2.40;;
72674;SDS011;60752;53.962;9.614;2022-08-07T16:31:19;5.35;;;2.20;;
72674;SDS011;60752;53.962;9.614;2022-08-07T16:36:28;4.57;;;2.00;;
72674;SDS011;60752;53.962;9.614;2022-08-07T16:42:03;4.68;;;1.88;;
72674;SDS011;60752;53.962;9.614;2022-08-07T16:47:27;5.40;;;1.90;;
72674;SDS011;60752;53.962;9.614;2022-08-07T16:52:55;4.77;;;1.90;;
72674;SDS011;60752;53.962;9.614;2022-08-07T16:58:12;5.37;;;2.20;;
72674;SDS011;60752;53.962;9.614;2022-08-07T17:03:23;7.63;;;1.73;;
72674;SDS011;60752;53.962;9.614;2022-08-07T17:08:34;4.90;;;1.90;;
72674;SDS011;60752;53.962;9.614;2022-08-07T17:13:55;4.80;;;1.80;;
72674;SDS011;60752;53.962;9.614;2022-08-07T17:19:02;5.03;;;1.58;;
72674;SDS011;60752;53.962;9.614;2022-08-07T17:29:51;5.53;;;1.57;;
72674;SDS011;60752;53.962;9.614;2022-08-07T17:35:04;4.65;;;1.65;;
72674;SDS011;60752;53.962;9.614;2022-08-07T17:40:09;5.53;;;1.90;;
72674;SDS011;60752;53.962;9.614;2022-08-07T17:45:20;4.93;;;1.90;;
72674;SDS011;60752;53.962;9.614;2022-08-07T17:50:29;4.57;;;1.80;;
72674;SDS011;60752;53.962;9.614;2022-08-07T17:55:45;4.05;;;1.50;;
72674;SDS011;60752;53.962;9.614;2022-08-07T18:00:51;4.63;;;1.50;;
72674;SDS011;60752;53.962;9.614;2022-08-07T18:05:53;5.83;;;1.43;;
72674;SDS011;60752;53.962;9.614;2022-08-07T18:11:01;3.90;;;1.55;;
72674;SDS011;60752;53.962;9.614;2022-08-07T18:16:11;4.50;;;1.45;;
72674;SDS011;60752;53.962;9.614;2022-08-07T18:21:16;4.10;;;1.53;;
72674;SDS011;60752;53.962;9.614;2022-08-07T18:26:30;4.45;;;1.40;;
72674;SDS011;60752;53.962;9.614;2022-08-07T18:31:47;8.05;;;1.45;;
72674;SDS011;60752;53.962;9.614;2022-08-07T18:37:01;4.60;;;1.50;;
72674;SDS011;60752;53.962;9.614;2022-08-07T18:42:16;4.23;;;1.60;;
72674;SDS011;60752;53.962;9.614;2022-08-07T18:47:24;4.53;;;1.38;;
72674;SDS011;60752;53.962;9.614;2022-08-07T18:52:33;4.32;;;1.58;;
72674;SDS011;60752;53.962;9.614;2022-08-07T18:57:43;3.53;;;1.30;;
72674;SDS011;60752;53.962;9.614;2022-08-07T19:02:54;5.85;;;1.63;;
72674;SDS011;60752;53.962;9.614;2022-08-07T19:08:03;5.50;;;1.35;;
72674;SDS011;60752;53.962;9.614;2022-08-07T19:13:07;6.67;;;1.50;;
72674;SDS011;60752;53.962;9.614;2022-08-07T19:18:16;4.15;;;1.42;;
72674;SDS011;60752;53.962;9.614;2022-08-07T19:23:21;5.65;;;1.35;;
72674;SDS011;60752;53.962;9.614;2022-08-07T19:28:25;5.30;;;1.63;;
72674;SDS011;60752;53.962;9.614;2022-08-07T19:33:29;4.27;;;1.47;;
72674;SDS011;60752;53.962;9.614;2022-08-07T19:38:31;4.18;;;1.55;;
72674;SDS011;60752;53.962;9.614;2022-08-07T19:43:34;4.03;;;1.52;;
72674;SDS011;60752;53.962;9.614;2022-08-07T19:48:40;4.47;;;1.40;;
72674;SDS011;60752;53.962;9.614;2022-08-07T19:53:48;4.10;;;1.33;;
72674;SDS011;60752;53.962;9.614;2022-08-07T19:58:48;6.10;;;1.92;;
72674;SDS011;60752;53.962;9.614;2022-08-07T20:03:52;6.80;;;1.87;;
72674;SDS011;60752;53.962;9.614;2022-08-07T20:08:54;5.68;;;1.58;;
72674;SDS011;60752;53.962;9.614;2022-08-07T20:13:56;5.55;;;1.88;;
72674;SDS011;60752;53.962;9.614;2022-08-07T20:18:59;4.63;;;1.63;;
72674;SDS011;60752;53.962;9.614;2022-08-07T20:24:02;6.57;;;2.47;;
72674;SDS011;60752;53.962;9.614;2022-08-07T20:29:03;4.78;;;2.03;;
72674;SDS011;60752;53.962;9.614;2022-08-07T20:34:06;5.82;;;1.90;;
72674;SDS011;60752;53.962;9.614;2022-08-07T20:39:09;4.83;;;1.93;;
72674;SDS011;60752;53.962;9.614;2022-08-07T20:44:12;5.80;;;2.00;;
72674;SDS011;60752;53.962;9.614;2022-08-07T20:49:15;4.43;;;1.92;;
72674;SDS011;60752;53.962;9.614;2022-08-07T20:54:17;7.17;;;2.10;;
72674;SDS011;60752;53.962;9.614;2022-08-07T20:59:19;4.97;;;2.45;;
72674;SDS011;60752;53.962;9.614;2022-08-07T21:04:24;6.00;;;2.10;;
72674;SDS011;60752;53.962;9.614;2022-08-07T21:09:28;8.17;;;2.00;;
72674;SDS011;60752;53.962;9.614;2022-08-07T21:14:35;7.77;;;2.03;;
72674;SDS011;60752;53.962;9.614;2022-08-07T21:19:39;6.60;;;1.90;;
72674;SDS011;60752;53.962;9.614;2022-08-07T21:24:42;5.10;;;1.73;;
72674;SDS011;60752;53.962;9.614;2022-08-07T21:29:55;4.60;;;1.87;;
72674;SDS011;60752;53.962;9.614;2022-08-07T21:35:03;4.47;;;1.80;;
72674;SDS011;60752;53.962;9.614;2022-08-07T21:40:09;5.53;;;1.88;;
72674;SDS011;60752;53.962;9.614;2022-08-07T21:45:16;5.07;;;1.90;;
72674;SDS011;60752;53.962;9.614;2022-08-07T21:50:42;5.55;;;2.10;;
72674;SDS011;60752;53.962;9.614;2022-08-07T21:55:50;5.63;;;2.17;;
72674;SDS011;60752;53.962;9.614;2022-08-07T22:00:59;6.10;;;1.80;;
72674;SDS011;60752;53.962;9.614;2022-08-07T22:06:06;4.23;;;1.93;;
72674;SDS011;60752;53.962;9.614;2022-08-07T22:11:10;4.15;;;1.80;;
72674;SDS011;60752;53.962;9.614;2022-08-07T22:16:13;4.93;;;2.08;;
72674;SDS011;60752;53.962;9.614;2022-08-07T22:21:20;5.57;;;1.73;;
72674;SDS011;60752;53.962;9.614;2022-08-07T22:26:26;7.65;;;2.30;;
72674;SDS011;60752;53.962;9.614;2022-08-07T22:31:30;5.15;;;1.83;;
72674;SDS011;60752;53.962;9.614;2022-08-07T22:36:42;6.13;;;2.30;;
72674;SDS011;60752;53.962;9.614;2022-08-07T22:41:48;4.90;;;1.88;;
72674;SDS011;60752;53.962;9.614;2022-08-07T22:47:02;4.32;;;1.80;;
72674;SDS011;60752;53.962;9.614;2022-08-07T22:52:22;5.60;;;1.60;;
72674;SDS011;60752;53.962;9.614;2022-08-07T23:03:09;4.20;;;2.05;;
72674;SDS011;60752;53.962;9.614;2022-08-07T23:08:30;4.80;;;2.13;;
72674;SDS011;60752;53.962;9.614;2022-08-07T23:13:41;4.70;;;1.90;;
72674;SDS011;60752;53.962;9.614;2022-08-07T23:18:55;6.78;;;2.03;;
72674;SDS011;60752;53.962;9.614;2022-08-07T23:24:04;5.00;;;2.20;;
72674;SDS011;60752;53.962;9.614;2022-08-07T23:29:21;5.60;;;2.00;;
72674;SDS011;60752;53.962;9.614;2022-08-07T23:34:50;5.00;;;1.98;;
72674;SDS011;60752;53.962;9.614;2022-08-07T23:40:10;4.72;;;2.00;;
72674;SDS011;60752;53.962;9.614;2022-08-07T23:45:20;4.93;;;2.23;;
72674;SDS011;60752;53.962;9.614;2022-08-07T23:50:27;5.00;;;2.07;;
72674;SDS011;60752;53.962;9.614;2022-08-07T23:55:40;4.53;;;1.85;;
